Raccoon Bend, Texas
Current Conditions -  °F | °C
As of 8:35 AM on Sunday 23 Nov 2014 (Local Time) from K11R Reporting Station
Clear Clear  
Wind Chill: 62°   Ceiling: Unl
Heat Index: 62°   Visibility: 10mi
Dew Point: 60°   Wind: 9mph
Humidity: 92%   Direction: 250°WSW
Pressure: 29.67"   Gusts: NA
Location:  29.9944°N, 96.2595°W
Report Text: K11R 231435Z AUTO 25008KT 10SM CLR 17/16 A2967 RMK AO2 T01690156
Loading
Personal Weather Stations






























Interactive Weather Map New forecast layout! Learn more

10-Day Weather Forecast

Advertisements
Track Severe Weather on mobile